** WELKOM OP ONZE WEBSITE MET ACTUELE WEERDATA VANUIT IZEGEM **
Het weer levert geen direct gevaar op.    Er zijn geen waarschuwingen afgegeven.

Weercam te Izegem Meer informatie Weercam te Izegem


Lokaal brand risico:
FWI


Regionaal brand risico: Meer informatie


Steun ons initiatief via een kleine donatie!



METAR rapporten vliegvelden

   
EBOS - Oostende Airport, Belgium
Afstand tot: NW 39 km
Gewijzigd: 14-10-2019 19:20
Licht bewolkt  
Licht bewolkt  
   Wind: OZO 13 km/h
Wind: OZO 13 km/h
Temperatuur: 17°C
Dauwpunt: 15°C
Vochtigheid: 88%
Barometer: 1004 hPa
Bewolking: Few Clouds
Zicht: meer dan 10 km
Bewolking: Licht bewolkt 2500 ft
EBOS 141720Z 12007KT 9999 FEW025 17/15 Q1004 NOSIG
LFQQ - Lille/Lesquin, France
Afstand tot: Z 40 km
Gewijzigd: 14-10-2019 19:30
Helder  
Helder  
   Wind: ZO 18.5 km/h
Wind: ZO 18.5 km/h
Temperatuur: 20°C
Dauwpunt: 15°C
Vochtigheid: 73%
Barometer: 1004 hPa
Zicht: meer dan 10 km
Bewolking: Helder ft
LFQQ 141730Z AUTO 14010KT CAVOK 20/15 Q1004 TEMPO VRB25G45KT 0800 TSGR BKN008 BKN030CB
EBFN - Koksijde (bel-Af, Belgium
Afstand tot: WNW 43 km
Gewijzigd: 14-10-2019 19:25
Helder  
Helder  
   Wind: OZO 9.3 km/h
Wind: OZO 9.3 km/h
Temperatuur: 17°C
Dauwpunt: 15°C
Vochtigheid: 88%
Barometer: 1003 hPa
Bewolking: Clear
Zicht: meer dan 10 km
Bewolking: Helder ft
EBFN 141725Z AUTO 11005KT 9999 NCD 17/15 Q1003 BLU
EBCV - Chievres Ab, Belgium
Afstand tot: ZO 59 km
Gewijzigd: 14-10-2019 19:25
Gedeeltelijk bewolkt  
Gedeeltelijk bewolkt  
   Wind: ZO 13 km/h
Wind: ZO 13 km/h
Temperatuur: 19°C
Dauwpunt: 15°C
Vochtigheid: 78%
Barometer: 1005 hPa
Bewolking: Partly Cloudy
Zicht: meer dan 10 km
Bewolking: Gedeeltelijk bewolkt 13000 ft
EBCV 141725Z AUTO 14007KT 9999 SCT130/// 19/15 Q1005 BLU
EHFS - Vlissingen, Netherlands
Afstand tot: NNO 65 km
Gewijzigd: 14-10-2019 19:25
Gedeeltelijk bewolkt  
Gedeeltelijk bewolkt  
   Wind: OZO 24.1 km/h
Wind: OZO 24.1 km/h
Temperatuur: 18°C
Dauwpunt: 15°C
Vochtigheid: 83%
Barometer: 1004 hPa
Bewolking: Partly Cloudy
Zicht: meer dan 10 km
Bewolking: Gedeeltelijk bewolkt ft
EHFS 141725Z AUTO 12013KT 9999 NSC 18/15 Q1004 W///H///
EBBR - Brussels Nationa, Belgium
Afstand tot: O 91 km
Gewijzigd: 14-10-2019 19:20
Helder  
Helder  
   Wind: ZZO 16.7 km/h
Wind: ZZO 16.7 km/h
Temperatuur: 20°C
Dauwpunt: 14°C
Vochtigheid: 69%
Barometer: 1005 hPa
Zicht: meer dan 10 km
Bewolking: Helder ft
EBBR 141720Z 15009KT CAVOK 20/14 Q1005 NOSIG
EBAW - Antwerp/Deurne, Belgium
Afstand tot: ONO 94 km
Gewijzigd: 14-10-2019 19:20
Helder  
Helder  
   Wind: ZO 7.4 km/h
Wind: ZO 7.4 km/h
Temperatuur: 18°C
Dauwpunt: 15°C
Vochtigheid: 83%
Barometer: 1005 hPa
Zicht: meer dan 10 km
Bewolking: Helder ft
EBAW 141720Z 14004KT CAVOK 18/15 Q1005 NOSIG
EHWO - Woensdrecht Rnla, Netherlands
Afstand tot: NO 98 km
Gewijzigd: 14-10-2019 19:25
Bewolking  
Bewolking  
   Wind: varieert 3.7 km/h
Wind: varieert 3.7 km/h
Temperatuur: 18°C
Dauwpunt: 16°C
Vochtigheid: 88%
Barometer: 1005 hPa
Bewolking: Overcast
Zicht: meer dan 10 km
Bewolking: Bewolking 11000 ft
EHWO 141725Z AUTO VRB02KT 9999 OVC110 18/16 Q1005 BLU
EBCI - Charleroi/Gossel, Belgium
Afstand tot: OZO 102 km
Gewijzigd: 14-10-2019 19:20
Helder  
Helder  
   Wind: ZZO 13 km/h
Wind: ZZO 13 km/h
Temperatuur: 19°C
Dauwpunt: 14°C
Vochtigheid: 73%
Barometer: 1006 hPa
Zicht: meer dan 10 km
Bewolking: Helder ft
EBCI 141720Z 15007KT 120V190 CAVOK 19/14 Q1006 NOSIG

Script ontwikkeld door  Saratoga-weather.org Aangepast voor de template door  Weerstation Leuven